createdAt,value
2022-07-29T00:01:47.083Z,19.31
2022-07-29T00:04:15.656Z,19.32
2022-07-29T00:06:44.216Z,19.34
2022-07-29T00:09:12.427Z,19.35
2022-07-29T00:11:40.661Z,19.35
2022-07-29T00:14:09.038Z,19.35
2022-07-29T00:16:37.282Z,19.37
2022-07-29T00:19:05.682Z,19.40
2022-07-29T00:21:35.979Z,19.41
2022-07-29T00:24:05.393Z,19.41
2022-07-29T00:26:33.782Z,19.43
2022-07-29T00:29:32.294Z,19.45
2022-07-29T00:31:51.938Z,19.45
2022-07-29T00:34:38.700Z,19.48
2022-07-29T00:37:07.900Z,19.51
2022-07-29T00:39:36.276Z,19.52
2022-07-29T00:42:05.769Z,19.55
2022-07-29T00:44:37.792Z,19.56
2022-07-29T00:47:06.096Z,19.57
2022-07-29T00:49:34.991Z,19.58
2022-07-29T00:52:06.430Z,19.58
2022-07-29T00:54:43.805Z,19.59
2022-07-29T00:57:13.861Z,19.58
2022-07-29T00:59:42.509Z,19.58
2022-07-29T01:02:12.021Z,19.58
2022-07-29T01:04:40.657Z,19.58
2022-07-29T01:07:09.137Z,19.58
2022-07-29T01:09:46.151Z,19.57
2022-07-29T01:12:18.005Z,19.56
2022-07-29T01:14:48.825Z,19.55
2022-07-29T01:17:25.461Z,19.54
2022-07-29T01:20:01.071Z,19.53
2022-07-29T01:22:47.317Z,19.51
2022-07-29T01:25:33.979Z,19.50
2022-07-29T01:28:04.596Z,19.48
2022-07-29T01:30:36.745Z,19.47
2022-07-29T01:33:08.800Z,19.45
2022-07-29T01:35:38.590Z,19.43
2022-07-29T01:38:10.816Z,19.41
2022-07-29T01:40:49.017Z,19.42
2022-07-29T01:43:18.685Z,19.41
2022-07-29T01:45:51.947Z,19.41
2022-07-29T01:48:24.462Z,19.41
2022-07-29T01:51:00.060Z,19.42
2022-07-29T01:53:38.175Z,19.45
2022-07-29T01:56:08.143Z,19.49
2022-07-29T01:58:38.031Z,19.51
2022-07-29T02:01:09.778Z,19.55
2022-07-29T02:03:38.728Z,19.58
2022-07-29T02:06:08.379Z,19.64
2022-07-29T02:08:37.882Z,19.70
2022-07-29T02:11:08.379Z,19.72
2022-07-29T02:13:38.254Z,19.72
2022-07-29T02:16:08.016Z,19.72
2022-07-29T02:18:38.691Z,19.70
2022-07-29T02:21:06.622Z,19.68
2022-07-29T02:23:50.642Z,19.68
2022-07-29T02:26:24.814Z,19.67
2022-07-29T02:28:53.561Z,19.66
2022-07-29T02:31:23.292Z,19.62
2022-07-29T02:33:51.717Z,19.59
2022-07-29T02:36:22.268Z,19.57
2022-07-29T02:38:51.391Z,19.55
2022-07-29T02:41:24.630Z,19.52
2022-07-29T02:43:57.481Z,19.49
2022-07-29T02:46:34.079Z,19.48
2022-07-29T02:49:20.685Z,19.47
2022-07-29T02:51:59.435Z,19.46
2022-07-29T02:54:32.323Z,19.44
2022-07-29T02:57:01.907Z,19.44
2022-07-29T02:59:32.254Z,19.43
2022-07-29T03:02:01.421Z,19.42
2022-07-29T03:04:32.039Z,19.41
2022-07-29T03:07:02.032Z,19.40
2022-07-29T03:09:30.889Z,19.37
2022-07-29T03:11:59.402Z,19.34
2022-07-29T03:14:27.699Z,19.30
2022-07-29T03:16:56.595Z,19.25
2022-07-29T03:19:24.791Z,19.22
2022-07-29T03:21:53.015Z,19.20
2022-07-29T03:24:28.051Z,19.18
2022-07-29T03:26:57.669Z,19.18
2022-07-29T03:29:33.045Z,19.19
2022-07-29T03:32:04.270Z,19.20
2022-07-29T03:34:38.569Z,19.24
2022-07-29T03:37:07.523Z,19.27
2022-07-29T03:39:42.938Z,19.31
2022-07-29T03:42:13.342Z,19.35
2022-07-29T03:44:43.143Z,19.38
2022-07-29T03:47:13.428Z,19.41
2022-07-29T03:49:42.260Z,19.43
2022-07-29T03:52:10.264Z,19.45
2022-07-29T03:54:38.407Z,19.47
2022-07-29T03:57:07.039Z,19.49
2022-07-29T03:59:35.134Z,19.52
2022-07-29T04:02:06.709Z,19.55
2022-07-29T04:04:35.817Z,19.59
2022-07-29T04:07:04.795Z,19.68
2022-07-29T04:09:32.930Z,19.81
2022-07-29T04:12:04.112Z,20.05
2022-07-29T04:14:33.463Z,20.33
2022-07-29T04:17:04.891Z,20.52
2022-07-29T04:19:33.354Z,20.51
2022-07-29T04:22:02.118Z,20.49
2022-07-29T04:24:31.406Z,20.48
2022-07-29T04:27:04.856Z,20.54
2022-07-29T04:29:35.836Z,20.54
2022-07-29T04:32:03.896Z,20.48
2022-07-29T04:34:32.039Z,20.42
2022-07-29T04:37:01.466Z,20.41
2022-07-29T04:39:30.551Z,20.39
2022-07-29T04:41:58.969Z,20.41
2022-07-29T04:44:30.187Z,20.50
2022-07-29T04:47:00.441Z,20.57
2022-07-29T04:49:28.648Z,20.63
2022-07-29T04:51:56.663Z,20.65
2022-07-29T04:54:28.069Z,20.70
2022-07-29T04:56:58.178Z,20.74
2022-07-29T04:59:27.823Z,20.78
2022-07-29T05:01:56.139Z,20.82
2022-07-29T05:04:24.257Z,20.88
2022-07-29T05:06:55.388Z,20.94
2022-07-29T05:09:24.545Z,21.05
2022-07-29T05:11:55.437Z,21.20
2022-07-29T05:14:23.446Z,21.39
2022-07-29T05:16:56.111Z,21.56
2022-07-29T05:19:28.277Z,21.73
2022-07-29T05:21:56.892Z,21.94
2022-07-29T05:24:30.457Z,22.15
2022-07-29T05:27:03.234Z,22.38
2022-07-29T05:29:44.069Z,22.58
2022-07-29T05:32:14.903Z,22.82
2022-07-29T05:34:50.824Z,23.04
2022-07-29T05:37:20.974Z,23.30
2022-07-29T05:39:56.170Z,23.55
2022-07-29T05:42:25.728Z,23.73
2022-07-29T05:44:54.271Z,23.89
2022-07-29T05:47:23.010Z,24.07
2022-07-29T05:49:52.147Z,24.29
2022-07-29T05:52:20.189Z,24.49
2022-07-29T05:54:48.256Z,24.67
2022-07-29T05:57:17.879Z,24.85
2022-07-29T05:59:47.702Z,25.05
2022-07-29T06:02:16.075Z,25.18
2022-07-29T06:04:45.898Z,25.23
2022-07-29T06:07:14.455Z,25.23
2022-07-29T06:09:42.606Z,25.15
2022-07-29T06:12:12.782Z,25.24
2022-07-29T06:14:40.776Z,25.30
2022-07-29T06:17:08.914Z,25.37
2022-07-29T06:19:37.999Z,25.37
2022-07-29T06:22:06.113Z,25.37
2022-07-29T06:24:34.211Z,25.35
2022-07-29T06:27:10.165Z,25.29
2022-07-29T06:29:38.251Z,25.26
2022-07-29T06:32:08.974Z,25.25
2022-07-29T06:34:41.150Z,25.27
2022-07-29T06:37:32.304Z,25.29
2022-07-29T06:40:26.390Z,25.42
2022-07-29T06:42:54.750Z,25.62
2022-07-29T06:45:24.234Z,25.82
2022-07-29T06:48:17.575Z,25.88
2022-07-29T06:50:45.665Z,25.94
2022-07-29T06:53:14.089Z,26.02
2022-07-29T06:55:46.829Z,26.18
2022-07-29T06:58:22.214Z,26.53
2022-07-29T07:01:02.615Z,26.71
2022-07-29T07:03:32.474Z,26.82
2022-07-29T07:06:00.838Z,26.89
2022-07-29T07:08:29.146Z,26.93
2022-07-29T07:10:59.842Z,26.90
2022-07-29T07:13:55.422Z,26.89
2022-07-29T07:16:27.979Z,26.88
2022-07-29T07:19:02.604Z,27.11
2022-07-29T07:21:31.491Z,27.47
2022-07-29T07:24:00.184Z,27.92
2022-07-29T07:26:28.522Z,28.46
2022-07-29T07:28:57.155Z,28.99
2022-07-29T07:31:49.139Z,29.28
2022-07-29T07:34:29.544Z,29.48
2022-07-29T07:37:08.189Z,29.52
2022-07-29T07:39:37.878Z,29.46
2022-07-29T07:42:06.211Z,29.60
2022-07-29T07:44:46.322Z,30.01
2022-07-29T07:47:24.615Z,30.63
2022-07-29T07:49:56.014Z,31.21
2022-07-29T07:52:45.228Z,31.81
2022-07-29T07:55:13.796Z,32.42
2022-07-29T07:57:44.511Z,33.01
2022-07-29T08:00:34.104Z,33.28
2022-07-29T08:03:24.126Z,33.60
2022-07-29T08:09:28.104Z,34.05
2022-07-29T08:12:00.339Z,34.16
2022-07-29T08:14:48.703Z,34.55
2022-07-29T08:17:17.703Z,34.70
2022-07-29T08:19:50.277Z,34.79
2022-07-29T08:22:19.030Z,34.82
2022-07-29T08:24:54.825Z,35.01
2022-07-29T08:30:13.934Z,34.94
2022-07-29T08:32:55.671Z,35.04
2022-07-29T08:35:26.285Z,34.86
2022-07-29T08:37:58.740Z,34.69
2022-07-29T08:40:32.511Z,34.46
2022-07-29T08:43:36.172Z,34.54
2022-07-29T08:46:07.941Z,34.76
2022-07-29T08:48:37.703Z,34.92
2022-07-29T08:51:08.156Z,34.74
2022-07-29T08:53:43.263Z,34.71
2022-07-29T08:56:14.876Z,34.66
2022-07-29T08:58:43.060Z,34.83
2022-07-29T09:01:36.352Z,35.04
2022-07-29T09:04:36.383Z,35.32
2022-07-29T09:07:09.348Z,35.37
2022-07-29T09:09:41.713Z,35.29
2022-07-29T09:12:13.247Z,35.43
2022-07-29T09:14:59.018Z,35.52
2022-07-29T09:17:47.518Z,35.49
2022-07-29T09:20:22.248Z,35.61
2022-07-29T09:22:52.066Z,35.71
2022-07-29T09:29:36.417Z,35.46
2022-07-29T09:34:56.840Z,35.21
2022-07-29T09:37:53.702Z,35.42
2022-07-29T09:40:24.702Z,35.37
2022-07-29T09:43:17.495Z,35.08
2022-07-29T09:45:45.895Z,35.28
2022-07-29T09:48:18.750Z,35.43
2022-07-29T09:50:51.732Z,35.43
2022-07-29T09:53:33.520Z,35.31
2022-07-29T09:56:02.050Z,35.14
2022-07-29T09:58:30.099Z,35.16
2022-07-29T10:01:03.885Z,35.30
2022-07-29T10:04:23.614Z,35.42
2022-07-29T10:07:23.577Z,35.01
2022-07-29T10:11:02.307Z,35.08
2022-07-29T10:13:48.187Z,35.20
2022-07-29T10:16:29.584Z,35.39
2022-07-29T10:19:31.627Z,35.60
2022-07-29T10:22:00.798Z,35.67
2022-07-29T10:24:31.134Z,35.82
2022-07-29T10:27:02.075Z,35.73
2022-07-29T10:29:34.357Z,35.65
2022-07-29T10:32:08.450Z,35.68
2022-07-29T10:34:49.699Z,35.93
2022-07-29T10:37:36.126Z,35.81
2022-07-29T10:40:34.850Z,35.86
2022-07-29T10:43:16.174Z,36.03
2022-07-29T10:45:47.837Z,35.98
2022-07-29T10:51:48.735Z,35.81
2022-07-29T10:54:21.143Z,35.70
2022-07-29T10:56:49.960Z,35.64
2022-07-29T10:59:25.164Z,35.29
2022-07-29T11:02:27.717Z,35.10
2022-07-29T11:04:46.965Z,35.03
2022-07-29T11:07:20.026Z,35.00
2022-07-29T11:10:12.370Z,34.89
2022-07-29T11:12:41.960Z,34.86
2022-07-29T11:15:20.322Z,34.82
2022-07-29T11:17:59.363Z,34.90
2022-07-29T11:20:37.953Z,34.95
2022-07-29T11:23:33.944Z,35.00
2022-07-29T11:26:14.927Z,34.86
2022-07-29T11:29:02.331Z,35.17
2022-07-29T11:31:39.740Z,35.19
2022-07-29T11:34:18.877Z,35.44
2022-07-29T11:37:11.570Z,35.61
2022-07-29T11:39:43.129Z,35.75
2022-07-29T11:42:17.494Z,35.93
2022-07-29T11:45:04.095Z,36.05
2022-07-29T11:47:38.210Z,35.91
2022-07-29T11:50:10.307Z,35.86
2022-07-29T11:52:49.576Z,35.88
2022-07-29T11:55:20.504Z,35.58
2022-07-29T11:58:04.199Z,35.43
2022-07-29T12:00:35.458Z,35.47
2022-07-29T12:03:09.107Z,35.33
2022-07-29T12:05:37.501Z,35.30
2022-07-29T12:08:14.551Z,35.18
2022-07-29T12:10:43.834Z,35.05
2022-07-29T12:13:13.149Z,35.20
2022-07-29T12:15:47.248Z,35.20
2022-07-29T12:18:23.931Z,35.09
2022-07-29T12:21:06.832Z,34.87
2022-07-29T12:23:39.213Z,34.55
2022-07-29T12:26:21.895Z,34.19
2022-07-29T12:28:54.794Z,33.76
2022-07-29T12:31:43.922Z,33.43
2022-07-29T12:34:14.612Z,33.30
2022-07-29T12:36:43.896Z,33.27
2022-07-29T12:39:12.559Z,33.28
2022-07-29T12:41:41.212Z,33.31
2022-07-29T12:44:09.186Z,33.34
2022-07-29T12:46:37.243Z,33.44
2022-07-29T12:49:06.516Z,33.59
2022-07-29T12:51:37.663Z,33.62
2022-07-29T12:54:15.573Z,33.77
2022-07-29T12:56:45.340Z,34.02
2022-07-29T12:59:14.187Z,33.94
2022-07-29T13:01:42.338Z,33.81
2022-07-29T13:04:10.373Z,33.88
2022-07-29T13:08:29.502Z,33.80
2022-07-29T13:09:41.708Z,33.77
2022-07-29T13:12:11.246Z,33.84
2022-07-29T13:14:39.325Z,33.80
2022-07-29T13:17:09.747Z,33.88
2022-07-29T13:19:41.711Z,33.83
2022-07-29T13:22:14.089Z,33.82
2022-07-29T13:24:47.037Z,33.71
2022-07-29T13:27:21.080Z,33.60
2022-07-29T13:29:57.604Z,33.49
2022-07-29T13:32:30.962Z,33.42
2022-07-29T13:35:05.351Z,33.36
2022-07-29T13:37:36.084Z,33.36
2022-07-29T13:40:09.641Z,33.27
2022-07-29T13:42:37.735Z,33.34
2022-07-29T13:45:07.784Z,33.46
2022-07-29T13:47:36.071Z,33.49
2022-07-29T13:50:08.305Z,33.42
2022-07-29T13:52:39.005Z,33.39
2022-07-29T13:55:11.488Z,33.43
2022-07-29T13:57:42.043Z,33.56
2022-07-29T14:00:13.960Z,33.52
2022-07-29T14:02:44.766Z,33.47
2022-07-29T14:05:17.545Z,33.44
2022-07-29T14:07:45.556Z,33.20
2022-07-29T14:10:18.407Z,33.07
2022-07-29T14:12:48.673Z,33.07
2022-07-29T14:15:19.565Z,33.18
2022-07-29T14:17:48.194Z,33.21
2022-07-29T14:20:20.492Z,33.10
2022-07-29T14:22:48.431Z,32.96
2022-07-29T14:25:31.212Z,32.81
2022-07-29T14:27:59.225Z,32.67
2022-07-29T14:30:29.490Z,32.48
2022-07-29T14:32:57.821Z,32.35
2022-07-29T14:35:27.167Z,32.20
2022-07-29T14:37:55.412Z,32.09
2022-07-29T14:40:23.446Z,32.00
2022-07-29T14:42:51.600Z,31.90
2022-07-29T14:45:24.387Z,31.82
2022-07-29T14:47:57.415Z,31.77
2022-07-29T14:50:31.921Z,31.72
2022-07-29T14:53:06.302Z,31.69
2022-07-29T14:55:37.420Z,31.73
2022-07-29T14:58:10.010Z,31.73
2022-07-29T15:00:41.998Z,31.67
2022-07-29T15:03:13.243Z,31.64
2022-07-29T15:05:58.059Z,31.66
2022-07-29T15:08:31.084Z,31.68
2022-07-29T15:11:00.567Z,31.68
2022-07-29T15:13:29.223Z,31.61
2022-07-29T15:16:00.225Z,31.60
2022-07-29T15:18:30.131Z,31.57
2022-07-29T15:20:58.141Z,31.62
2022-07-29T15:23:26.014Z,31.63
2022-07-29T15:25:54.127Z,31.63
2022-07-29T15:28:22.104Z,31.61
2022-07-29T15:30:50.106Z,31.63
2022-07-29T15:33:18.904Z,31.67
2022-07-29T15:35:46.852Z,31.67
2022-07-29T15:38:15.079Z,31.68
2022-07-29T15:40:44.685Z,31.68
2022-07-29T15:43:12.845Z,31.64
2022-07-29T15:46:03.786Z,31.63
2022-07-29T15:48:39.746Z,31.59
2022-07-29T15:51:07.882Z,31.56
2022-07-29T15:53:36.808Z,31.54
2022-07-29T15:56:08.539Z,31.54
2022-07-29T15:58:36.453Z,31.55
2022-07-29T16:01:05.620Z,31.53
2022-07-29T16:03:33.713Z,31.47
2022-07-29T16:06:02.014Z,31.45
2022-07-29T16:08:30.112Z,31.44
2022-07-29T16:10:58.139Z,31.42
2022-07-29T16:13:26.127Z,31.39
2022-07-29T16:16:02.144Z,31.37
2022-07-29T16:18:31.162Z,31.37
2022-07-29T16:21:00.701Z,31.36
2022-07-29T16:23:28.844Z,31.32
2022-07-29T16:26:00.086Z,31.24
2022-07-29T16:28:29.971Z,31.20
2022-07-29T16:30:59.704Z,31.14
2022-07-29T16:33:28.512Z,31.07
2022-07-29T16:36:18.387Z,30.96
2022-07-29T16:38:48.151Z,30.89
2022-07-29T16:41:17.491Z,30.83
2022-07-29T16:43:45.597Z,30.78
2022-07-29T16:46:18.988Z,30.76
2022-07-29T16:48:48.579Z,30.72
2022-07-29T16:51:16.898Z,30.67
2022-07-29T16:53:48.901Z,30.63
2022-07-29T16:56:18.770Z,30.60
2022-07-29T16:58:47.368Z,30.56
2022-07-29T17:01:16.154Z,30.52
2022-07-29T17:04:03.008Z,30.45
2022-07-29T17:06:35.179Z,30.37
2022-07-29T17:09:05.031Z,30.29
2022-07-29T17:11:52.452Z,30.24
2022-07-29T17:14:24.199Z,30.19
2022-07-29T17:17:00.313Z,30.12
2022-07-29T17:19:30.512Z,30.02
2022-07-29T17:22:07.038Z,29.89
2022-07-29T17:24:38.949Z,29.78
2022-07-29T17:27:10.424Z,29.65
2022-07-29T17:29:41.581Z,29.52
2022-07-29T17:32:09.958Z,29.40
2022-07-29T17:34:41.899Z,29.30
2022-07-29T17:37:10.840Z,29.20
2022-07-29T17:39:40.992Z,29.10
2022-07-29T17:42:10.279Z,29.00
2022-07-29T17:44:38.545Z,28.91
2022-07-29T17:47:07.842Z,28.81
2022-07-29T17:49:38.683Z,28.72
2022-07-29T17:52:08.210Z,28.63
2022-07-29T17:54:36.054Z,28.53
2022-07-29T17:57:04.117Z,28.43
2022-07-29T17:59:38.592Z,28.35
2022-07-29T18:02:07.813Z,28.24
2022-07-29T18:04:35.845Z,28.11
2022-07-29T18:07:04.955Z,28.02
2022-07-29T18:09:32.997Z,27.91
2022-07-29T18:12:07.656Z,27.79
2022-07-29T18:14:43.025Z,27.66
2022-07-29T18:17:12.476Z,27.53
2022-07-29T18:19:40.444Z,27.41
2022-07-29T18:22:10.346Z,27.28
2022-07-29T18:24:38.593Z,27.15
2022-07-29T18:27:06.526Z,27.02
2022-07-29T18:29:34.862Z,26.91
2022-07-29T18:32:02.859Z,26.82
2022-07-29T18:34:31.043Z,26.72
2022-07-29T18:37:01.505Z,26.64
2022-07-29T18:39:31.299Z,26.56
2022-07-29T18:42:01.422Z,26.49
2022-07-29T18:44:29.705Z,26.42
2022-07-29T18:46:58.010Z,26.36
2022-07-29T18:49:29.289Z,26.31
2022-07-29T18:51:57.348Z,26.25
2022-07-29T18:54:25.418Z,26.21
2022-07-29T18:56:53.639Z,26.18
2022-07-29T18:59:25.092Z,26.14
2022-07-29T19:01:53.218Z,26.12
2022-07-29T19:04:21.499Z,26.10
2022-07-29T19:06:52.297Z,26.05
2022-07-29T19:09:21.052Z,26.01
2022-07-29T19:11:53.009Z,25.97
2022-07-29T19:14:24.590Z,25.92
2022-07-29T19:16:52.525Z,25.87
2022-07-29T19:19:40.869Z,25.83
2022-07-29T19:22:09.332Z,25.78
2022-07-29T19:24:41.111Z,25.74
2022-07-29T19:27:09.203Z,25.68
2022-07-29T19:29:38.177Z,25.63
2022-07-29T19:32:06.622Z,25.58
2022-07-29T19:34:34.640Z,25.52
2022-07-29T19:37:02.706Z,25.45
2022-07-29T19:39:35.338Z,25.38
2022-07-29T19:42:04.906Z,25.40
2022-07-29T19:44:32.999Z,25.46
2022-07-29T19:47:01.984Z,25.49
2022-07-29T19:49:30.182Z,25.51
2022-07-29T19:51:58.307Z,25.53
2022-07-29T19:54:27.108Z,25.53
2022-07-29T19:56:55.412Z,25.52
2022-07-29T19:59:25.429Z,25.52
2022-07-29T20:01:57.822Z,25.52
2022-07-29T20:04:27.678Z,25.49
2022-07-29T20:07:01.498Z,25.45
2022-07-29T20:09:29.939Z,25.42
2022-07-29T20:11:57.965Z,25.37
2022-07-29T20:14:25.857Z,25.33
2022-07-29T20:16:54.575Z,25.29
2022-07-29T20:19:22.592Z,25.24
2022-07-29T20:21:51.566Z,25.20
2022-07-29T20:24:20.561Z,25.15
2022-07-29T20:26:49.111Z,25.10
2022-07-29T20:29:17.527Z,25.04
2022-07-29T20:31:45.911Z,24.99
2022-07-29T20:34:23.701Z,24.92
2022-07-29T20:36:51.953Z,24.87
2022-07-29T20:39:21.349Z,24.82
2022-07-29T20:41:49.820Z,24.77
2022-07-29T20:44:19.865Z,24.71
2022-07-29T20:46:52.694Z,24.67
2022-07-29T20:49:23.353Z,24.63
2022-07-29T20:51:52.836Z,24.59
2022-07-29T20:54:20.881Z,24.56
2022-07-29T20:56:48.842Z,24.54
2022-07-29T20:59:17.779Z,24.50
2022-07-29T21:01:46.592Z,24.46
2022-07-29T21:04:14.705Z,24.43
2022-07-29T21:06:42.707Z,24.40
2022-07-29T21:09:12.580Z,24.34
2022-07-29T21:11:43.337Z,24.31
2022-07-29T21:14:33.140Z,24.28
2022-07-29T21:17:05.860Z,24.25
2022-07-29T21:19:34.321Z,24.24
2022-07-29T21:22:02.746Z,24.21
2022-07-29T21:24:30.968Z,24.19
2022-07-29T21:27:21.062Z,24.18
2022-07-29T21:29:49.769Z,24.15
2022-07-29T21:32:27.634Z,24.11
2022-07-29T21:34:58.370Z,24.09
2022-07-29T21:37:26.394Z,24.08
2022-07-29T21:39:54.403Z,24.07
2022-07-29T21:42:22.346Z,24.07
2022-07-29T21:44:50.620Z,24.06
2022-07-29T21:47:18.843Z,24.06
2022-07-29T21:49:46.855Z,24.06
2022-07-29T21:52:18.662Z,24.06
2022-07-29T21:54:46.677Z,24.07
2022-07-29T21:57:18.155Z,24.08
2022-07-29T21:59:49.248Z,24.08
2022-07-29T22:02:17.189Z,24.09
2022-07-29T22:04:47.714Z,24.09
2022-07-29T22:07:15.708Z,24.09
2022-07-29T22:09:43.693Z,24.10
2022-07-29T22:12:11.771Z,24.09
2022-07-29T22:14:39.701Z,24.09
2022-07-29T22:17:07.891Z,24.08
2022-07-29T22:19:37.316Z,24.06
2022-07-29T22:22:06.850Z,24.04
2022-07-29T22:24:35.154Z,24.03
2022-07-29T22:27:03.527Z,24.01
2022-07-29T22:29:31.619Z,23.99
2022-07-29T22:31:59.563Z,23.96
2022-07-29T22:34:34.112Z,23.94
2022-07-29T22:37:06.352Z,23.93
2022-07-29T22:39:35.445Z,23.89
2022-07-29T22:42:03.606Z,23.87
2022-07-29T22:44:31.662Z,23.86
2022-07-29T22:47:00.222Z,23.85
2022-07-29T22:49:28.536Z,23.82
2022-07-29T22:51:58.046Z,23.79
2022-07-29T22:54:26.364Z,23.76
2022-07-29T22:56:54.324Z,23.73
2022-07-29T22:59:25.634Z,23.70
2022-07-29T23:01:53.572Z,23.65
2022-07-29T23:04:23.813Z,23.61
2022-07-29T23:06:51.851Z,23.58
2022-07-29T23:09:20.027Z,23.55
2022-07-29T23:11:48.158Z,23.54
2022-07-29T23:14:16.650Z,23.53
2022-07-29T23:16:44.736Z,23.49
2022-07-29T23:19:12.853Z,23.46
2022-07-29T23:21:40.915Z,23.42
2022-07-29T23:24:09.315Z,23.39
2022-07-29T23:26:37.334Z,23.36
2022-07-29T23:29:05.458Z,23.33
2022-07-29T23:31:33.482Z,23.29
2022-07-29T23:34:09.890Z,23.27
2022-07-29T23:36:37.807Z,23.23
2022-07-29T23:39:06.252Z,23.22
2022-07-29T23:41:34.328Z,23.20
2022-07-29T23:44:02.262Z,23.18
2022-07-29T23:46:30.272Z,23.17
2022-07-29T23:48:58.287Z,23.14
2022-07-29T23:51:26.422Z,23.12
2022-07-29T23:53:54.961Z,23.10
2022-07-29T23:56:23.086Z,23.07
2022-07-29T23:58:52.131Z,23.04
